Time;durP1;ratioP1;P1;durP2;ratioP2;P2;SDS_P1;SDS_P2;PMS_P1;PMS_P2;Temp;Humidity;BMP_temperature;BMP_pressure;BME280_temperature;BME280_humidity;BME280_pressure;Samples;Min_cycle;Max_cycle;Signal;HPM_P1;HPM_P2
2022/11/11 00:07:43;;;;;;;12.57;3.27;;;;;;;10.20;96.15;102100.56;21006658;28;20044;-66
2022/11/11 00:28:46;;;;;;;9.40;2.83;;;;;;;9.91;97.65;102101.78;21002266;28;20526;-66
2022/11/11 00:39:07;;;;;;;14.73;3.00;;;;;;;9.71;98.00;102098.28;20996874;28;20135;-65
2022/11/11 01:00:10;;;;;;;8.25;2.70;;;;;;;9.53;99.05;102093.81;21011251;28;20362;-65
2022/11/11 01:10:37;;;;;;;12.38;3.00;;;;;;;9.42;98.89;102085.59;21012116;28;20048;-65
2022/11/11 01:21:14;;;;;;;13.45;3.38;;;;;;;9.56;98.79;102065.06;20920502;22;20161;-69
2022/11/11 01:31:36;;;;;;;14.30;3.33;;;;;;;9.35;99.73;102068.53;21002224;28;20041;-69
2022/11/11 01:41:58;;;;;;;;;;;;;;;9.32;99.96;102076.44;20952794;28;20045;-68
2022/11/11 01:52:37;;;;;;;10.57;4.68;;;;;;;9.36;99.81;102058.97;20931188;28;19970;-67
2022/11/11 02:03:04;;;;;;;8.55;4.55;;;;;;;9.15;100.00;102045.06;20922615;28;20044;-68
2022/11/11 02:24:11;;;;;;;7.55;4.47;;;;;;;9.11;100.00;102047.81;20973091;28;1138099;-67
2022/11/11 02:34:34;;;;;;;11.35;4.78;;;;;;;9.00;100.00;102043.06;20960249;28;20126;-68
2022/11/11 02:44:57;;;;;;;11.60;4.72;;;;;;;8.90;100.00;102057.31;20943503;28;20095;-69
2022/11/11 02:55:19;;;;;;;10.27;4.72;;;;;;;9.00;100.00;102086.41;20934197;28;20051;-68
2022/11/11 03:05:41;;;;;;;15.30;5.05;;;;;;;8.87;100.00;102101.66;20931189;28;20041;-67
2022/11/11 03:16:03;;;;;;;12.95;5.10;;;;;;;8.79;100.00;102097.63;20922299;28;20522;-68
2022/11/11 03:26:24;;;;;;;;;;;;;;;8.97;100.00;102118.59;20903653;28;20538;-67
2022/11/11 03:47:26;;;;;;;14.10;6.13;;;;;;;8.94;100.00;102133.47;20928238;28;20049;-67
2022/11/11 03:57:47;;;;;;;13.17;5.33;;;;;;;8.90;100.00;102127.50;20915026;28;20087;-68
2022/11/11 04:29:35;;;;;;;11.90;6.00;;;;;;;8.75;100.00;102107.28;20930650;28;20548;-68
2022/11/11 04:50:42;;;;;;;13.32;6.70;;;;;;;8.88;100.00;102118.09;20927251;28;20075;-67
2022/11/11 05:01:03;;;;;;;11.15;7.45;;;;;;;8.88;100.00;102121.50;20941990;28;20079;-68
2022/11/11 05:11:30;;;;;;;14.17;8.23;;;;;;;9.04;100.00;102125.25;20939915;28;20650;-68
2022/11/11 05:21:54;;;;;;;18.73;9.00;;;;;;;8.94;100.00;102116.09;20940750;28;20557;-68
2022/11/11 05:32:18;;;;;;;18.42;9.13;;;;;;;8.96;100.00;102119.50;20925684;28;20106;-67
2022/11/11 05:42:41;;;;;;;20.13;9.45;;;;;;;9.04;100.00;102120.03;20939252;28;20491;-67
2022/11/11 05:53:11;;;;;;;18.37;9.23;;;;;;;9.00;100.00;102097.69;20932464;28;20067;-68
2022/11/11 06:03:32;;;;;;;20.50;10.37;;;;;;;9.00;100.00;102115.88;20924597;28;20500;-67
2022/11/11 06:13:54;;;;;;;26.67;10.43;;;;;;;9.04;100.00;102121.81;20931024;28;20481;-67
2022/11/11 06:24:16;;;;;;;22.48;10.35;;;;;;;9.09;100.00;102149.34;20933642;28;20479;-68
2022/11/11 06:34:37;;;;;;;22.13;11.10;;;;;;;9.15;100.00;102148.25;20946026;28;20110;-68
2022/11/11 06:44:59;;;;;;;20.87;11.03;;;;;;;9.08;100.00;102141.59;20924003;28;20075;-68
2022/11/11 06:55:21;;;;;;;20.23;10.80;;;;;;;9.15;100.00;102169.94;20941565;28;20109;-68
2022/11/11 07:05:43;;;;;;;22.08;11.55;;;;;;;9.31;100.00;102178.88;20920473;28;20041;-68
2022/11/11 07:16:05;;;;;;;23.33;10.80;;;;;;;9.24;100.00;102179.97;20936448;22;20049;-74
2022/11/11 07:26:27;;;;;;;19.67;10.80;;;;;;;9.32;100.00;102198.75;20764813;28;20095;-74
2022/11/11 07:36:48;;;;;;;21.20;10.53;;;;;;;9.40;100.00;102214.94;20779044;28;20090;-74
2022/11/11 07:47:10;;;;;;;23.00;11.20;;;;;;;9.35;100.00;102240.28;20757256;28;20045;-74
2022/11/11 07:57:31;;;;;;;20.70;10.67;;;;;;;9.50;100.00;102255.31;20784048;28;20303;-71
2022/11/11 08:07:53;;;;;;;23.07;11.63;;;;;;;9.48;100.00;102264.94;20767946;28;20069;-73
2022/11/11 08:18:14;;;;;;;17.13;10.67;;;;;;;9.37;100.00;102269.69;20772036;28;20089;-73
2022/11/11 08:28:36;;;;;;;20.00;11.40;;;;;;;9.44;100.00;102265.97;20773752;28;20305;-73
2022/11/11 08:38:57;;;;;;;24.30;11.40;;;;;;;9.40;100.00;102269.59;20778684;28;20119;-73
2022/11/11 08:49:19;;;;;;;22.95;11.25;;;;;;;9.39;100.00;102280.91;20796489;28;20053;-72
2022/11/11 08:59:41;;;;;;;19.47;11.87;;;;;;;9.36;100.00;102287.97;20776007;28;20048;-72
2022/11/11 09:10:02;;;;;;;22.97;11.93;;;;;;;9.35;100.00;102296.69;20763227;28;20053;-73
2022/11/11 09:20:24;;;;;;;20.55;12.27;;;;;;;9.42;100.00;102309.41;20756638;28;20041;-72
2022/11/11 09:30:46;;;;;;;23.50;12.70;;;;;;;9.39;100.00;102319.09;20769317;28;20045;-72
2022/11/11 09:41:17;;;;;;;22.77;12.53;;;;;;;9.46;100.00;102331.81;20796101;28;20041;-72
2022/11/11 09:52:06;;;;;;;28.53;12.93;;;;;;;9.51;100.00;102350.72;20782510;28;20107;-72
2022/11/11 10:02:44;;;;;;;25.38;12.15;;;;;;;9.52;100.00;102352.44;20783087;28;20133;-73
2022/11/11 10:13:13;;;;;;;23.33;11.85;;;;;;;9.68;100.00;102348.38;20756830;28;20087;-74
2022/11/11 10:23:36;;;;;;;19.02;10.77;;;;;;;9.50;100.00;102343.81;20773261;28;20042;-72
2022/11/11 10:34:01;;;;;;;20.20;11.23;;;;;;;9.44;100.00;102354.47;20774539;28;20104;-72
2022/11/11 10:44:34;;;;;;;20.80;10.85;;;;;;;9.44;100.00;102354.47;20759329;28;20038;-74
2022/11/11 10:55:21;;;;;;;16.30;10.70;;;;;;;9.59;100.00;102348.72;20765580;28;20632;-72
2022/11/11 11:05:55;;;;;;;16.88;9.63;;;;;;;9.62;100.00;102348.56;20754412;28;20065;-73
2022/11/11 11:16:50;;;;;;;14.35;9.20;;;;;;;9.72;100.00;102355.16;20740609;28;20503;-73
2022/11/11 11:27:25;;;;;;;14.07;8.30;;;;;;;9.79;100.00;102352.28;20734642;28;20075;-72
2022/11/11 11:37:49;;;;;;;16.73;7.55;;;;;;;10.24;100.00;102349.72;20767873;28;20045;-72
2022/11/11 11:48:37;;;;;;;12.00;7.88;;;;;;;10.40;98.72;102341.25;20773078;28;20446;-71
2022/11/11 11:59:16;;;;;;;18.13;9.23;;;;;;;10.69;97.11;102338.31;20750181;28;20045;-71
2022/11/11 12:09:49;;;;;;;12.95;7.60;;;;;;;10.89;96.05;102347.00;20772690;28;20527;-69
2022/11/11 12:20:18;;;;;;;11.38;6.20;;;;;;;11.10;95.25;102330.44;20744030;28;20045;-70
2022/11/11 12:30:48;;;;;;;10.77;5.05;;;;;;;11.49;93.41;102333.94;20750110;28;20041;-70
2022/11/11 12:41:22;;;;;;;6.60;3.80;;;;;;;11.65;91.67;102332.34;20772142;28;20045;-69
2022/11/11 12:51:55;;;;;;;4.72;3.30;;;;;;;11.85;90.80;102334.91;20749338;28;20431;-70
2022/11/11 13:02:55;;;;;;;6.93;3.13;;;;;;;11.90;90.63;102330.34;20743411;28;20077;-71
2022/11/11 13:13:23;;;;;;;9.13;3.17;;;;;;;11.96;90.16;102333.50;20764753;28;20491;-71
2022/11/11 13:23:45;;;;;;;7.90;3.30;;;;;;;11.94;90.14;102344.94;20778900;28;20484;-72
2022/11/11 13:34:13;;;;;;;3.88;2.63;;;;;;;12.02;90.12;102337.59;20777183;28;20284;-71
2022/11/11 13:44:48;;;;;;;9.07;3.10;;;;;;;11.96;89.95;102343.09;20780038;28;20041;-71
2022/11/11 13:55:27;;;;;;;4.63;2.35;;;;;;;12.01;90.35;102354.22;20768111;28;20484;-73
2022/11/11 14:06:14;;;;;;;8.98;2.78;;;;;;;12.06;90.27;102347.00;20764771;28;20038;-72
2022/11/11 14:16:36;;;;;;;7.32;2.75;;;;;;;12.02;90.39;102361.13;20766441;28;20038;-71
2022/11/11 14:27:03;;;;;;;8.15;2.58;;;;;;;12.06;90.79;102358.31;20796912;28;20054;-71
2022/11/11 14:37:38;;;;;;;7.00;2.17;;;;;;;12.15;89.84;102372.72;20777366;28;20091;-72
2022/11/11 14:48:00;;;;;;;5.78;2.00;;;;;;;12.01;90.49;102369.88;20774106;28;20077;-72
2022/11/11 14:58:33;;;;;;;6.50;2.13;;;;;;;11.91;90.64;102385.13;20773722;28;20486;-72
2022/11/11 15:09:06;;;;;;;7.72;2.20;;;;;;;11.69;91.95;102383.53;20775450;28;20057;-72
2022/11/11 15:19:47;;;;;;;5.43;1.90;;;;;;;11.66;92.36;102399.34;20769774;28;20072;-71
2022/11/11 15:30:13;;;;;;;4.40;2.03;;;;;;;11.43;94.25;102402.09;20756012;28;20053;-73
2022/11/11 15:40:46;;;;;;;5.13;2.30;;;;;;;11.23;94.97;102407.28;20764305;28;20049;-71
2022/11/11 15:51:28;;;;;;;5.80;2.35;;;;;;;11.03;96.12;102415.13;20774423;28;20049;-72
2022/11/11 16:01:51;;;;;;;5.18;2.40;;;;;;;10.90;95.61;102416.53;20758524;28;20037;-71
2022/11/11 16:12:18;;;;;;;5.45;2.10;;;;;;;10.72;96.22;102421.63;20759335;28;20132;-70
2022/11/11 16:22:44;;;;;;;8.90;2.65;;;;;;;10.55;97.29;102435.34;20757585;28;20076;-70
2022/11/11 16:33:26;;;;;;;7.10;2.55;;;;;;;10.17;99.79;102436.84;20765632;28;20050;-76
2022/11/11 16:43:48;;;;;;;7.10;2.50;;;;;;;9.83;100.00;102449.38;20769736;28;20402;-76
2022/11/11 16:54:15;;;;;;;4.03;2.05;;;;;;;9.65;100.00;102453.47;20765598;28;20041;-72
2022/11/11 17:04:50;;;;;;;8.50;3.25;;;;;;;9.41;100.00;102456.06;20745498;28;20905;-73
2022/11/11 17:15:14;;;;;;;9.05;3.33;;;;;;;9.22;100.00;102461.94;20733214;28;20050;-72
2022/11/11 17:25:35;;;;;;;5.70;3.45;;;;;;;9.05;100.00;102467.66;20760434;28;20037;-72
2022/11/11 17:35:57;;;;;;;9.87;5.13;;;;;;;9.01;100.00;102471.28;20738610;28;20480;-72
2022/11/11 17:46:18;;;;;;;13.65;5.53;;;;;;;8.95;100.00;102483.66;20757338;28;20045;-73
2022/11/11 17:56:40;;;;;;;24.90;12.07;;;;;;;9.24;100.00;102479.19;20757801;28;20052;-73
2022/11/11 18:07:01;;;;;;;30.47;17.67;;;;;;;9.46;100.00;102477.56;20771133;28;20147;-73
2022/11/11 18:17:23;;;;;;;21.48;9.13;;;;;;;9.43;100.00;102477.69;20754032;28;20097;-73
2022/11/11 18:27:45;;;;;;;;;;;;;;;9.49;100.00;102485.28;20754696;28;20034;-71
2022/11/11 18:38:06;;;;;;;18.50;7.07;;;;;;;9.21;100.00;102492.28;20775941;28;20003;-71
2022/11/11 18:48:28;;;;;;;19.73;7.90;;;;;;;9.07;100.00;102486.69;20761874;28;20114;-71
2022/11/11 18:58:52;;;;;;;12.67;7.30;;;;;;;8.66;100.00;102487.13;20758387;28;20075;-71
2022/11/11 19:09:14;;;;;;;15.85;7.57;;;;;;;8.51;100.00;102475.47;20776826;28;20347;-71
2022/11/11 19:19:35;;;;;;;14.03;6.80;;;;;;;8.30;100.00;102479.56;20762286;28;20125;-66
2022/11/11 19:29:57;;;;;;;11.83;6.50;;;;;;;8.23;100.00;102474.59;20761254;28;20103;-72
2022/11/11 19:40:18;;;;;;;12.83;6.73;;;;;;;7.94;100.00;102492.69;20756287;28;20814;-71
2022/11/11 19:50:40;;;;;;;12.77;6.63;;;;;;;7.80;100.00;102500.00;20735641;28;20408;-72
2022/11/11 20:01:09;;;;;;;;;;;;;;;7.73;100.00;102508.84;20760429;28;20049;-74
2022/11/11 20:11:31;;;;;;;18.48;9.73;;;;;;;7.61;100.00;102527.31;20765918;28;20047;-74
2022/11/11 20:21:53;;;;;;;19.42;10.52;;;;;;;7.39;100.00;102530.47;20758313;28;20038;-72
2022/11/11 20:32:15;;;;;;;21.37;10.13;;;;;;;7.34;100.00;102540.97;20738737;28;20045;-72
2022/11/11 20:42:37;;;;;;;17.25;9.25;;;;;;;7.25;100.00;102529.97;20740970;28;20052;-72
2022/11/11 20:52:58;;;;;;;;;;;;;;;7.27;100.00;102549.81;20728601;28;20112;-72
2022/11/11 21:03:20;;;;;;;16.93;7.93;;;;;;;7.16;100.00;102556.13;20729273;28;20038;-73
2022/11/11 21:13:45;;;;;;;12.97;8.13;;;;;;;6.91;100.00;102554.97;20723387;28;20077;-73
2022/11/11 21:24:07;;;;;;;15.43;8.60;;;;;;;6.89;100.00;102551.56;20728497;28;20090;-74
2022/11/11 21:34:29;;;;;;;14.30;7.75;;;;;;;6.76;100.00;102561.31;20741086;28;20116;-73
2022/11/11 21:44:50;;;;;;;16.43;8.30;;;;;;;6.62;100.00;102562.53;20747296;28;20045;-76
2022/11/11 21:55:12;;;;;;;13.27;8.37;;;;;;;6.62;100.00;102562.53;20747002;28;20042;-77
2022/11/11 22:05:33;;;;;;;15.30;8.10;;;;;;;6.50;100.00;102561.91;20740005;28;20116;-75
2022/11/11 22:16:07;;;;;;;16.80;8.80;;;;;;;6.44;100.00;102582.72;20750706;28;20414;-75
2022/11/11 22:26:40;;;;;;;15.73;9.00;;;;;;;6.32;100.00;102585.56;20772212;28;20042;-75
2022/11/11 22:37:02;;;;;;;13.52;8.70;;;;;;;6.26;100.00;102590.88;20757223;28;20127;-75
2022/11/11 22:47:24;;;;;;;18.75;9.07;;;;;;;6.23;100.00;102590.94;20732327;28;20041;-75
2022/11/11 22:57:45;;;;;;;10.57;8.10;;;;;;;6.12;100.00;102585.94;20741044;28;20692;-78
2022/11/11 23:08:07;;;;;;;17.23;8.70;;;;;;;6.05;100.00;102599.03;20775172;28;20525;-77
2022/11/11 23:18:29;;;;;;;16.30;8.43;;;;;;;5.98;100.00;102602.59;20747887;28;20126;-76
2022/11/11 23:28:51;;;;;;;11.90;7.00;;;;;;;5.94;100.00;102600.97;20759161;28;20285;-73
2022/11/11 23:39:12;;;;;;;8.88;5.95;;;;;;;5.87;100.00;102609.69;20770861;28;20046;-72
2022/11/11 23:49:34;;;;;;;8.03;5.17;;;;;;;5.77;100.00;102614.16;20774543;28;20104;-72
2022/11/11 23:59:55;;;;;;;7.87;5.47;;;;;;;5.72;100.00;102617.66;20765370;28;20050;-72
